PWSweather.com
Personal Weather Stations
Station Observations
MIXERSVP2
Woodland, CA 95695

Woodland, CA 95695

Lat: 38.659, Lon: -121.775

Elevation: 45

Station Type: Davis Vantage Pro 2

High Low Average
Temperature 58.4°F14.7°C 50.7°F10.4°C 53.9°F12.2°C
Dew Point 52.0°F11.1°C 44.2°F6.8°C 47.8°F8.8°C
Winds 18.0 mph 29.0 kmh Calm Calm 5.0 mph SE8.0 kmh SE
Wind Gusts 28.0 mph45.1 kmh -- 10.0 mph16.1 kmh
Humidity 83% 77% 80%
Pressure 29.92 in1013.2 mb 29.59 in1002.0 mb -
Precipitation 0.54 in13.7 mm - -
Hour Temp Dew Point Humidity Winds Wind Gusts Pressure Precip Precip Rate Daily Precip Total
12:00 AM 50.5°F10.3°C 44.2°F6.8°C 79% 2.0 mph SSE3.2 kmh SSE 4.0 mph6.4 kmh 29.89 in1012.2 mb 0.00 in0.0 mm 0.00 in0.0 mm 0.01 in0.3 mm
12:05 AM 50.4°F10.2°C 44.1°F6.7°C 79% 2.0 mph SE3.2 kmh SE 4.0 mph6.4 kmh 29.89 in1012.2 mb 0.00 in0.0 mm 0.00 in0.0 mm 0.01 in0.3 mm
12:10 AM 50.6°F10.3°C 44.3°F6.8°C 79% 2.0 mph ESE3.2 kmh ESE 4.0 mph6.4 kmh 29.89 in1012.2 mb 0.00 in0.0 mm 0.00 in0.0 mm 0.01 in0.3 mm
12:15 AM 50.9°F10.5°C 44.6°F7.0°C 79% 2.0 mph SE3.2 kmh SE 5.0 mph8.0 kmh 29.89 in1012.2 mb 0.00 in0.0 mm 0.00 in0.0 mm 0.01 in0.3 mm
12:20 AM 50.9°F10.5°C 44.6°F7.0°C 79% 2.0 mph ESE3.2 kmh ESE 5.0 mph8.0 kmh 29.89 in1012.2 mb 0.00 in0.0 mm 0.00 in0.0 mm 0.01 in0.3 mm
12:25 AM 50.9°F10.5°C 44.6°F7.0°C 79% 2.0 mph SE3.2 kmh SE 4.0 mph6.4 kmh 29.90 in1012.5 mb 0.00 in0.0 mm 0.00 in0.0 mm 0.01 in0.3 mm
12:30 AM 50.9°F10.5°C 44.6°F7.0°C 79% 2.0 mph ESE3.2 kmh ESE 5.0 mph8.0 kmh 29.90 in1012.5 mb 0.00 in0.0 mm 0.00 in0.0 mm 0.01 in0.3 mm
12:35 AM 51.0°F10.6°C 44.7°F7.1°C 79% 2.0 mph E3.2 kmh E 5.0 mph8.0 kmh 29.89 in1012.2 mb 0.00 in0.0 mm 0.00 in0.0 mm 0.01 in0.3 mm
12:40 AM 51.1°F10.6°C 44.8°F7.1°C 79% 2.0 mph ESE3.2 kmh ESE 5.0 mph8.0 kmh 29.90 in1012.5 mb 0.00 in0.0 mm 0.00 in0.0 mm 0.01 in0.3 mm
12:45 AM 51.2°F10.7°C 44.9°F7.2°C 79% 4.0 mph SE6.4 kmh SE 5.0 mph8.0 kmh 29.90 in1012.5 mb 0.00 in0.0 mm 0.00 in0.0 mm 0.01 in0.3 mm
12:50 AM 51.3°F10.7°C 45.0°F7.2°C 79% 1.0 mph SE1.6 kmh SE 5.0 mph8.0 kmh 29.90 in1012.5 mb 0.00 in0.0 mm 0.00 in0.0 mm 0.01 in0.3 mm
12:55 AM 51.4°F10.8°C 45.1°F7.3°C 79% 1.0 mph ESE1.6 kmh ESE 5.0 mph8.0 kmh 29.90 in1012.5 mb 0.00 in0.0 mm 0.00 in0.0 mm 0.01 in0.3 mm
01:01 AM 51.5°F10.8°C 45.2°F7.3°C 79% 2.0 mph ESE3.2 kmh ESE 5.0 mph8.0 kmh 29.89 in1012.2 mb 0.00 in0.0 mm 0.00 in0.0 mm 0.00 in0.0 mm
01:05 AM 51.5°F10.8°C 45.2°F7.3°C 79% Calm Calm 4.0 mph6.4 kmh 29.89 in1012.2 mb 0.00 in0.0 mm 0.00 in0.0 mm 0.00 in0.0 mm
01:10 AM 51.4°F10.8°C 45.1°F7.3°C 79% 2.0 mph SE3.2 kmh SE 5.0 mph8.0 kmh 29.90 in1012.5 mb 0.00 in0.0 mm 0.00 in0.0 mm 0.00 in0.0 mm
01:15 AM 51.3°F10.7°C 45.0°F7.2°C 79% 2.0 mph E3.2 kmh E 5.0 mph8.0 kmh 29.90 in1012.5 mb 0.00 in0.0 mm 0.00 in0.0 mm 0.00 in0.0 mm
01:20 AM 51.0°F10.6°C 44.7°F7.1°C 79% 2.0 mph E3.2 kmh E 5.0 mph8.0 kmh 29.90 in1012.5 mb 0.00 in0.0 mm 0.00 in0.0 mm 0.00 in0.0 mm
01:25 AM 50.8°F10.4°C 44.5°F6.9°C 79% 2.0 mph ESE3.2 kmh ESE 4.0 mph6.4 kmh 29.90 in1012.5 mb 0.00 in0.0 mm 0.00 in0.0 mm 0.00 in0.0 mm
01:30 AM 50.7°F10.4°C 44.4°F6.9°C 79% 1.0 mph SE1.6 kmh SE 4.0 mph6.4 kmh 29.90 in1012.5 mb 0.00 in0.0 mm 0.00 in0.0 mm 0.00 in0.0 mm
01:35 AM 50.8°F10.4°C 44.5°F6.9°C 79% 2.0 mph ESE3.2 kmh ESE 4.0 mph6.4 kmh 29.90 in1012.5 mb 0.00 in0.0 mm 0.00 in0.0 mm 0.00 in0.0 mm
01:40 AM 51.0°F10.6°C 44.7°F7.1°C 79% 4.0 mph ESE6.4 kmh ESE 4.0 mph6.4 kmh 29.90 in1012.5 mb 0.00 in0.0 mm 0.00 in0.0 mm 0.00 in0.0 mm
01:45 AM 51.0°F10.6°C 44.7°F7.1°C 79% 4.0 mph SE6.4 kmh SE 5.0 mph8.0 kmh 29.91 in1012.9 mb 0.00 in0.0 mm 0.00 in0.0 mm 0.00 in0.0 mm
01:50 AM 51.1°F10.6°C 44.8°F7.1°C 79% 4.0 mph SE6.4 kmh SE 5.0 mph8.0 kmh 29.91 in1012.9 mb 0.00 in0.0 mm 0.00 in0.0 mm 0.00 in0.0 mm
01:55 AM 51.2°F10.7°C 44.9°F7.2°C 79% Calm Calm 5.0 mph8.0 kmh 29.91 in1012.9 mb 0.00 in0.0 mm 0.00 in0.0 mm 0.00 in0.0 mm
02:00 AM 51.3°F10.7°C 45.0°F7.2°C 79% 1.0 mph SSE1.6 kmh SSE 4.0 mph6.4 kmh 29.91 in1012.9 mb 0.00 in0.0 mm 0.00 in0.0 mm 0.00 in0.0 mm
02:05 AM 51.4°F10.8°C 45.1°F7.3°C 79% 1.0 mph SE1.6 kmh SE 4.0 mph6.4 kmh 29.91 in1012.9 mb 0.00 in0.0 mm 0.00 in0.0 mm 0.00 in0.0 mm
02:10 AM 51.5°F10.8°C 45.2°F7.3°C 79% Calm Calm 5.0 mph8.0 kmh 29.91 in1012.9 mb 0.00 in0.0 mm 0.00 in0.0 mm 0.00 in0.0 mm
02:15 AM 51.5°F10.8°C 45.2°F7.3°C 79% Calm Calm 5.0 mph8.0 kmh 29.91 in1012.9 mb 0.00 in0.0 mm 0.00 in0.0 mm 0.00 in0.0 mm
02:20 AM 51.7°F10.9°C 45.4°F7.4°C 79% Calm Calm 2.0 mph3.2 kmh 29.91 in1012.9 mb 0.00 in0.0 mm 0.00 in0.0 mm 0.00 in0.0 mm
02:25 AM 51.7°F10.9°C 45.4°F7.4°C 79% Calm Calm 1.0 mph1.6 kmh 29.91 in1012.9 mb 0.00 in0.0 mm 0.00 in0.0 mm 0.00 in0.0 mm
02:30 AM 51.7°F10.9°C 45.4°F7.4°C 79% 1.0 mph E1.6 kmh E 2.0 mph3.2 kmh 29.91 in1012.9 mb 0.00 in0.0 mm 0.00 in0.0 mm 0.00 in0.0 mm
02:35 AM 51.8°F11.0°C 45.5°F7.5°C 79% 4.0 mph E6.4 kmh E 4.0 mph6.4 kmh 29.92 in1013.2 mb 0.00 in0.0 mm 0.00 in0.0 mm 0.00 in0.0 mm
02:40 AM 52.0°F11.1°C 45.7°F7.6°C 79% 4.0 mph SE6.4 kmh SE 5.0 mph8.0 kmh 29.92 in1013.2 mb 0.00 in0.0 mm 0.00 in0.0 mm 0.00 in0.0 mm
02:45 AM 52.1°F11.2°C 45.8°F7.7°C 79% 4.0 mph SE6.4 kmh SE 6.0 mph9.7 kmh 29.91 in1012.9 mb 0.00 in0.0 mm 0.00 in0.0 mm 0.00 in0.0 mm
02:50 AM 52.2°F11.2°C 45.9°F7.7°C 79% 4.0 mph SE6.4 kmh SE 6.0 mph9.7 kmh 29.91 in1012.9 mb 0.00 in0.0 mm 0.00 in0.0 mm 0.00 in0.0 mm
02:55 AM 52.3°F11.3°C 46.0°F7.8°C 79% 4.0 mph ESE6.4 kmh ESE 6.0 mph9.7 kmh 29.91 in1012.9 mb 0.00 in0.0 mm 0.00 in0.0 mm 0.00 in0.0 mm
03:00 AM 52.4°F11.3°C 46.1°F7.8°C 79% 1.0 mph SE1.6 kmh SE 7.0 mph11.3 kmh 29.91 in1012.9 mb 0.00 in0.0 mm 0.00 in0.0 mm 0.00 in0.0 mm
03:05 AM 52.4°F11.3°C 46.1°F7.8°C 79% 5.0 mph SE8.0 kmh SE 8.0 mph12.9 kmh 29.92 in1013.2 mb 0.00 in0.0 mm 0.00 in0.0 mm 0.00 in0.0 mm
03:10 AM 52.4°F11.3°C 46.1°F7.8°C 79% 7.0 mph SSE11.3 kmh SSE 8.0 mph12.9 kmh 29.91 in1012.9 mb 0.00 in0.0 mm 0.00 in0.0 mm 0.00 in0.0 mm
03:15 AM 52.5°F11.4°C 46.2°F7.9°C 79% 4.0 mph SSE6.4 kmh SSE 8.0 mph12.9 kmh 29.92 in1013.2 mb 0.00 in0.0 mm 0.00 in0.0 mm 0.00 in0.0 mm
03:20 AM 52.5°F11.4°C 46.5°F8.1°C 80% 5.0 mph SE8.0 kmh SE 9.0 mph14.5 kmh 29.91 in1012.9 mb 0.00 in0.0 mm 0.00 in0.0 mm 0.00 in0.0 mm
03:25 AM 52.6°F11.4°C 46.6°F8.1°C 80% 5.0 mph SSE8.0 kmh SSE 9.0 mph14.5 kmh 29.91 in1012.9 mb 0.00 in0.0 mm 0.00 in0.0 mm 0.00 in0.0 mm
03:30 AM 52.6°F11.4°C 46.6°F8.1°C 80% 6.0 mph SSE9.7 kmh SSE 9.0 mph14.5 kmh 29.91 in1012.9 mb 0.00 in0.0 mm 0.00 in0.0 mm 0.00 in0.0 mm
03:35 AM 52.4°F11.3°C 46.4°F8.0°C 80% 5.0 mph SE8.0 kmh SE 9.0 mph14.5 kmh 29.91 in1012.9 mb 0.00 in0.0 mm 0.00 in0.0 mm 0.00 in0.0 mm
03:40 AM 52.4°F11.3°C 46.4°F8.0°C 80% 6.0 mph SE9.7 kmh SE 9.0 mph14.5 kmh 29.91 in1012.9 mb 0.00 in0.0 mm 0.00 in0.0 mm 0.00 in0.0 mm
03:45 AM 52.2°F11.2°C 46.2°F7.9°C 80% 4.0 mph SE6.4 kmh SE 8.0 mph12.9 kmh 29.91 in1012.9 mb 0.00 in0.0 mm 0.00 in0.0 mm 0.00 in0.0 mm
03:50 AM 52.1°F11.2°C 46.1°F7.8°C 80% 4.0 mph SE6.4 kmh SE 9.0 mph14.5 kmh 29.91 in1012.9 mb 0.00 in0.0 mm 0.00 in0.0 mm 0.00 in0.0 mm
03:55 AM 52.0°F11.1°C 46.4°F8.0°C 81% 2.0 mph SE3.2 kmh SE 9.0 mph14.5 kmh 29.91 in1012.9 mb 0.00 in0.0 mm 0.00 in0.0 mm 0.00 in0.0 mm
04:00 AM 52.0°F11.1°C 46.0°F7.8°C 80% 4.0 mph SE6.4 kmh SE 8.0 mph12.9 kmh 29.91 in1012.9 mb 0.00 in0.0 mm 0.00 in0.0 mm 0.00 in0.0 mm
04:05 AM 52.0°F11.1°C 46.0°F7.8°C 80% 5.0 mph SE8.0 kmh SE 9.0 mph14.5 kmh 29.91 in1012.9 mb 0.00 in0.0 mm 0.00 in0.0 mm 0.00 in0.0 mm
04:10 AM 52.0°F11.1°C 46.0°F7.8°C 80% 4.0 mph SSE6.4 kmh SSE 10.0 mph16.1 kmh 29.91 in1012.9 mb 0.00 in0.0 mm 0.00 in0.0 mm 0.00 in0.0 mm
04:15 AM 51.9°F11.1°C 45.9°F7.7°C 80% 5.0 mph SSE8.0 kmh SSE 10.0 mph16.1 kmh 29.91 in1012.9 mb 0.00 in0.0 mm 0.00 in0.0 mm 0.00 in0.0 mm
04:20 AM 51.9°F11.1°C 45.9°F7.7°C 80% 4.0 mph SSE6.4 kmh SSE 9.0 mph14.5 kmh 29.91 in1012.9 mb 0.00 in0.0 mm 0.00 in0.0 mm 0.00 in0.0 mm
04:25 AM 52.0°F11.1°C 46.0°F7.8°C 80% 7.0 mph SSE11.3 kmh SSE 9.0 mph14.5 kmh 29.91 in1012.9 mb 0.00 in0.0 mm 0.00 in0.0 mm 0.00 in0.0 mm
04:30 AM 51.9°F11.1°C 45.9°F7.7°C 80% 7.0 mph SE11.3 kmh SE 9.0 mph14.5 kmh 29.92 in1013.2 mb 0.00 in0.0 mm 0.00 in0.0 mm 0.00 in0.0 mm
04:35 AM 52.0°F11.1°C 46.0°F7.8°C 80% 6.0 mph SE9.7 kmh SE 9.0 mph14.5 kmh 29.91 in1012.9 mb 0.00 in0.0 mm 0.00 in0.0 mm 0.00 in0.0 mm
04:40 AM 52.1°F11.2°C 46.1°F7.8°C 80% 5.0 mph SSE8.0 kmh SSE 9.0 mph14.5 kmh 29.91 in1012.9 mb 0.00 in0.0 mm 0.00 in0.0 mm 0.00 in0.0 mm
04:45 AM 52.1°F11.2°C 46.1°F7.8°C 80% 4.0 mph SE6.4 kmh SE 9.0 mph14.5 kmh 29.91 in1012.9 mb 0.00 in0.0 mm 0.00 in0.0 mm 0.00 in0.0 mm
04:50 AM 52.0°F11.1°C 46.0°F7.8°C 80% 6.0 mph SE9.7 kmh SE 8.0 mph12.9 kmh 29.91 in1012.9 mb 0.00 in0.0 mm 0.00 in0.0 mm 0.00 in0.0 mm
04:55 AM 51.8°F11.0°C 45.8°F7.7°C 80% 4.0 mph SE6.4 kmh SE 8.0 mph12.9 kmh 29.91 in1012.9 mb 0.00 in0.0 mm 0.00 in0.0 mm 0.00 in0.0 mm
05:00 AM 51.7°F10.9°C 45.7°F7.6°C 80% 5.0 mph SE8.0 kmh SE 8.0 mph12.9 kmh 29.91 in1012.9 mb 0.00 in0.0 mm 0.00 in0.0 mm 0.00 in0.0 mm
05:05 AM 51.7°F10.9°C 45.7°F7.6°C 80% 1.0 mph SE1.6 kmh SE 9.0 mph14.5 kmh 29.91 in1012.9 mb 0.00 in0.0 mm 0.00 in0.0 mm 0.00 in0.0 mm
05:10 AM 51.8°F11.0°C 45.5°F7.5°C 79% 2.0 mph SE3.2 kmh SE 9.0 mph14.5 kmh 29.90 in1012.5 mb 0.00 in0.0 mm 0.00 in0.0 mm 0.00 in0.0 mm
05:15 AM 51.7°F10.9°C 45.4°F7.4°C 79% 2.0 mph SE3.2 kmh SE 8.0 mph12.9 kmh 29.90 in1012.5 mb 0.00 in0.0 mm 0.00 in0.0 mm 0.00 in0.0 mm
05:20 AM 51.7°F10.9°C 45.4°F7.4°C 79% 4.0 mph SE6.4 kmh SE 7.0 mph11.3 kmh 29.90 in1012.5 mb 0.00 in0.0 mm 0.00 in0.0 mm 0.00 in0.0 mm
05:25 AM 51.6°F10.9°C 45.3°F7.4°C 79% 2.0 mph SE3.2 kmh SE 7.0 mph11.3 kmh 29.90 in1012.5 mb 0.00 in0.0 mm 0.00 in0.0 mm 0.00 in0.0 mm
05:30 AM 51.6°F10.9°C 45.3°F7.4°C 79% 5.0 mph SSE8.0 kmh SSE 7.0 mph11.3 kmh 29.90 in1012.5 mb 0.00 in0.0 mm 0.00 in0.0 mm 0.00 in0.0 mm
05:35 AM 51.5°F10.8°C 45.2°F7.3°C 79% 2.0 mph SE3.2 kmh SE 7.0 mph11.3 kmh 29.90 in1012.5 mb 0.00 in0.0 mm 0.00 in0.0 mm 0.00 in0.0 mm
05:40 AM 51.5°F10.8°C 45.2°F7.3°C 79% 2.0 mph SE3.2 kmh SE 6.0 mph9.7 kmh 29.90 in1012.5 mb 0.00 in0.0 mm 0.00 in0.0 mm 0.00 in0.0 mm
05:45 AM 51.5°F10.8°C 45.2°F7.3°C 79% 2.0 mph SE3.2 kmh SE 6.0 mph9.7 kmh 29.90 in1012.5 mb 0.00 in0.0 mm 0.00 in0.0 mm 0.00 in0.0 mm
05:50 AM 51.5°F10.8°C 45.2°F7.3°C 79% 4.0 mph SE6.4 kmh SE 7.0 mph11.3 kmh 29.90 in1012.5 mb 0.00 in0.0 mm 0.00 in0.0 mm 0.00 in0.0 mm
05:55 AM 51.4°F10.8°C 45.1°F7.3°C 79% 4.0 mph SSE6.4 kmh SSE 7.0 mph11.3 kmh 29.90 in1012.5 mb 0.00 in0.0 mm 0.00 in0.0 mm 0.00 in0.0 mm
06:00 AM 51.4°F10.8°C 45.1°F7.3°C 79% 2.0 mph SE3.2 kmh SE 5.0 mph8.0 kmh 29.90 in1012.5 mb 0.00 in0.0 mm 0.00 in0.0 mm 0.00 in0.0 mm
06:05 AM 51.3°F10.7°C 45.0°F7.2°C 79% 4.0 mph SE6.4 kmh SE 5.0 mph8.0 kmh 29.90 in1012.5 mb 0.00 in0.0 mm 0.00 in0.0 mm 0.00 in0.0 mm
06:10 AM 51.2°F10.7°C 44.9°F7.2°C 79% 1.0 mph SSE1.6 kmh SSE 6.0 mph9.7 kmh 29.90 in1012.5 mb 0.00 in0.0 mm 0.00 in0.0 mm 0.00 in0.0 mm
06:15 AM 51.1°F10.6°C 44.8°F7.1°C 79% 5.0 mph SE8.0 kmh SE 6.0 mph9.7 kmh 29.90 in1012.5 mb 0.00 in0.0 mm 0.00 in0.0 mm 0.00 in0.0 mm
06:20 AM 51.0°F10.6°C 44.7°F7.1°C 79% 5.0 mph SE8.0 kmh SE 6.0 mph9.7 kmh 29.90 in1012.5 mb 0.00 in0.0 mm 0.00 in0.0 mm 0.00 in0.0 mm
06:25 AM 50.9°F10.5°C 44.6°F7.0°C 79% 1.0 mph SE1.6 kmh SE 6.0 mph9.7 kmh 29.89 in1012.2 mb 0.00 in0.0 mm 0.00 in0.0 mm 0.00 in0.0 mm
06:30 AM 50.8°F10.4°C 44.2°F6.8°C 78% 2.0 mph SE3.2 kmh SE 6.0 mph9.7 kmh 29.89 in1012.2 mb 0.00 in0.0 mm 0.00 in0.0 mm 0.00 in0.0 mm
06:35 AM 50.9°F10.5°C 44.3°F6.8°C 78% 1.0 mph SE1.6 kmh SE 5.0 mph8.0 kmh 29.89 in1012.2 mb 0.00 in0.0 mm 0.00 in0.0 mm 0.00 in0.0 mm
06:40 AM 51.0°F10.6°C 44.4°F6.9°C 78% 2.0 mph SSE3.2 kmh SSE 5.0 mph8.0 kmh 29.89 in1012.2 mb 0.00 in0.0 mm 0.00 in0.0 mm 0.00 in0.0 mm
06:45 AM 51.2°F10.7°C 44.6°F7.0°C 78% 4.0 mph SE6.4 kmh SE 5.0 mph8.0 kmh 29.89 in1012.2 mb 0.00 in0.0 mm 0.00 in0.0 mm 0.00 in0.0 mm
06:50 AM 51.4°F10.8°C 44.8°F7.1°C 78% 4.0 mph SSE6.4 kmh SSE 6.0 mph9.7 kmh 29.88 in1011.9 mb 0.00 in0.0 mm 0.00 in0.0 mm 0.00 in0.0 mm
06:55 AM 51.5°F10.8°C 44.9°F7.2°C 78% 1.0 mph SE1.6 kmh SE 6.0 mph9.7 kmh 29.88 in1011.9 mb 0.00 in0.0 mm 0.00 in0.0 mm 0.00 in0.0 mm
07:00 AM 51.7°F10.9°C 45.1°F7.3°C 78% 2.0 mph SE3.2 kmh SE 5.0 mph8.0 kmh 29.88 in1011.9 mb 0.00 in0.0 mm 0.00 in0.0 mm 0.00 in0.0 mm
07:05 AM 51.7°F10.9°C 45.1°F7.3°C 78% 1.0 mph SE1.6 kmh SE 4.0 mph6.4 kmh 29.88 in1011.9 mb 0.00 in0.0 mm 0.00 in0.0 mm 0.00 in0.0 mm
07:10 AM 51.8°F11.0°C 45.2°F7.3°C 78% 2.0 mph SE3.2 kmh SE 4.0 mph6.4 kmh 29.88 in1011.9 mb 0.00 in0.0 mm 0.00 in0.0 mm 0.00 in0.0 mm
07:15 AM 51.9°F11.1°C 45.3°F7.4°C 78% 2.0 mph SSW3.2 kmh SSW 5.0 mph8.0 kmh 29.88 in1011.9 mb 0.00 in0.0 mm 0.00 in0.0 mm 0.00 in0.0 mm
07:20 AM 51.8°F11.0°C 45.2°F7.3°C 78% 2.0 mph SE3.2 kmh SE 5.0 mph8.0 kmh 29.88 in1011.9 mb 0.00 in0.0 mm 0.00 in0.0 mm 0.00 in0.0 mm
07:25 AM 51.8°F11.0°C 45.2°F7.3°C 78% 4.0 mph SE6.4 kmh SE 5.0 mph8.0 kmh 29.88 in1011.9 mb 0.00 in0.0 mm 0.00 in0.0 mm 0.00 in0.0 mm
07:30 AM 51.7°F10.9°C 45.1°F7.3°C 78% 2.0 mph E3.2 kmh E 6.0 mph9.7 kmh 29.87 in1011.5 mb 0.00 in0.0 mm 0.00 in0.0 mm 0.00 in0.0 mm
07:35 AM 51.8°F11.0°C 45.2°F7.3°C 78% 4.0 mph E6.4 kmh E 8.0 mph12.9 kmh 29.87 in1011.5 mb 0.00 in0.0 mm 0.00 in0.0 mm 0.00 in0.0 mm
07:40 AM 51.7°F10.9°C 45.1°F7.3°C 78% 4.0 mph SE6.4 kmh SE 8.0 mph12.9 kmh 29.87 in1011.5 mb 0.00 in0.0 mm 0.00 in0.0 mm 0.00 in0.0 mm
07:45 AM 51.6°F10.9°C 45.0°F7.2°C 78% 2.0 mph SE3.2 kmh SE 6.0 mph9.7 kmh 29.87 in1011.5 mb 0.00 in0.0 mm 0.00 in0.0 mm 0.00 in0.0 mm
07:50 AM 51.5°F10.8°C 44.9°F7.2°C 78% 4.0 mph SE6.4 kmh SE 6.0 mph9.7 kmh 29.87 in1011.5 mb 0.00 in0.0 mm 0.00 in0.0 mm 0.00 in0.0 mm
07:55 AM 51.5°F10.8°C 44.9°F7.2°C 78% 4.0 mph E6.4 kmh E 9.0 mph14.5 kmh 29.86 in1011.2 mb 0.00 in0.0 mm 0.00 in0.0 mm 0.00 in0.0 mm
08:00 AM 51.5°F10.8°C 44.9°F7.2°C 78% 2.0 mph ESE3.2 kmh ESE 9.0 mph14.5 kmh 29.86 in1011.2 mb 0.00 in0.0 mm 0.00 in0.0 mm 0.00 in0.0 mm
08:05 AM 51.5°F10.8°C 44.9°F7.2°C 78% 7.0 mph ESE11.3 kmh ESE 9.0 mph14.5 kmh 29.86 in1011.2 mb 0.00 in0.0 mm 0.00 in0.0 mm 0.00 in0.0 mm
08:10 AM 51.4°F10.8°C 44.4°F6.9°C 77% 5.0 mph ESE8.0 kmh ESE 9.0 mph14.5 kmh 29.86 in1011.2 mb 0.00 in0.0 mm 0.00 in0.0 mm 0.00 in0.0 mm
08:15 AM 51.5°F10.8°C 44.5°F6.9°C 77% 7.0 mph E11.3 kmh E 9.0 mph14.5 kmh 29.86 in1011.2 mb 0.00 in0.0 mm 0.00 in0.0 mm 0.00 in0.0 mm
08:20 AM 51.4°F10.8°C 44.4°F6.9°C 77% 3.0 mph E4.8 kmh E 7.0 mph11.3 kmh 29.86 in1011.2 mb 0.00 in0.0 mm 0.00 in0.0 mm 0.00 in0.0 mm
08:25 AM 51.5°F10.8°C 44.5°F6.9°C 77% 4.0 mph ESE6.4 kmh ESE 7.0 mph11.3 kmh 29.87 in1011.5 mb 0.00 in0.0 mm 0.00 in0.0 mm 0.00 in0.0 mm
08:30 AM 51.5°F10.8°C 44.5°F6.9°C 77% 2.0 mph ESE3.2 kmh ESE 5.0 mph8.0 kmh 29.87 in1011.5 mb 0.00 in0.0 mm 0.00 in0.0 mm 0.00 in0.0 mm
08:35 AM 51.5°F10.8°C 44.5°F6.9°C 77% 2.0 mph E3.2 kmh E 5.0 mph8.0 kmh 29.87 in1011.5 mb 0.00 in0.0 mm 0.00 in0.0 mm 0.00 in0.0 mm
08:40 AM 51.5°F10.8°C 44.5°F6.9°C 77% 1.0 mph E1.6 kmh E 6.0 mph9.7 kmh 29.87 in1011.5 mb 0.00 in0.0 mm 0.00 in0.0 mm 0.00 in0.0 mm
08:45 AM 51.5°F10.8°C 44.5°F6.9°C 77% 1.0 mph S1.6 kmh S 6.0 mph9.7 kmh 29.87 in1011.5 mb 0.00 in0.0 mm 0.00 in0.0 mm 0.00 in0.0 mm
08:50 AM 51.5°F10.8°C 44.5°F6.9°C 77% 1.0 mph SSW1.6 kmh SSW 2.0 mph3.2 kmh 29.87 in1011.5 mb 0.00 in0.0 mm 0.00 in0.0 mm 0.00 in0.0 mm
08:55 AM 51.5°F10.8°C 44.5°F6.9°C 77% 1.0 mph SSE1.6 kmh SSE 2.0 mph3.2 kmh 29.87 in1011.5 mb 0.00 in0.0 mm 0.00 in0.0 mm 0.00 in0.0 mm
09:00 AM 51.5°F10.8°C 44.5°F6.9°C 77% 2.0 mph SE3.2 kmh SE 4.0 mph6.4 kmh 29.87 in1011.5 mb 0.00 in0.0 mm 0.00 in0.0 mm 0.00 in0.0 mm
09:05 AM 51.6°F10.9°C 44.6°F7.0°C 77% 2.0 mph SE3.2 kmh SE 4.0 mph6.4 kmh 29.87 in1011.5 mb 0.00 in0.0 mm 0.00 in0.0 mm 0.00 in0.0 mm
09:10 AM 51.7°F10.9°C 44.7°F7.1°C 77% Calm Calm 5.0 mph8.0 kmh 29.87 in1011.5 mb 0.00 in0.0 mm 0.00 in0.0 mm 0.00 in0.0 mm
09:15 AM 51.8°F11.0°C 44.8°F7.1°C 77% 1.0 mph S1.6 kmh S 5.0 mph8.0 kmh 29.87 in1011.5 mb 0.00 in0.0 mm 0.00 in0.0 mm 0.00 in0.0 mm
09:20 AM 51.9°F11.1°C 44.9°F7.2°C 77% Calm Calm 4.0 mph6.4 kmh 29.87 in1011.5 mb 0.00 in0.0 mm 0.00 in0.0 mm 0.00 in0.0 mm
09:25 AM 52.0°F11.1°C 45.0°F7.2°C 77% 2.0 mph SE3.2 kmh SE 5.0 mph8.0 kmh 29.87 in1011.5 mb 0.00 in0.0 mm 0.00 in0.0 mm 0.00 in0.0 mm
09:30 AM 52.3°F11.3°C 45.3°F7.4°C 77% 4.0 mph SE6.4 kmh SE 6.0 mph9.7 kmh 29.87 in1011.5 mb 0.00 in0.0 mm 0.00 in0.0 mm 0.00 in0.0 mm
09:35 AM 52.7°F11.5°C 45.7°F7.6°C 77% 5.0 mph SE8.0 kmh SE 7.0 mph11.3 kmh 29.87 in1011.5 mb 0.00 in0.0 mm 0.00 in0.0 mm 0.00 in0.0 mm
09:40 AM 52.8°F11.6°C 45.8°F7.7°C 77% 6.0 mph SE9.7 kmh SE 8.0 mph12.9 kmh 29.87 in1011.5 mb 0.00 in0.0 mm 0.00 in0.0 mm 0.00 in0.0 mm
09:45 AM 52.9°F11.6°C 45.9°F7.7°C 77% 5.0 mph SSE8.0 kmh SSE 9.0 mph14.5 kmh 29.87 in1011.5 mb 0.00 in0.0 mm 0.00 in0.0 mm 0.00 in0.0 mm
09:50 AM 53.2°F11.8°C 46.5°F8.1°C 78% 6.0 mph SE9.7 kmh SE 11.0 mph17.7 kmh 29.87 in1011.5 mb 0.00 in0.0 mm 0.00 in0.0 mm 0.00 in0.0 mm
09:55 AM 53.5°F11.9°C 46.8°F8.2°C 78% 7.0 mph SSE11.3 kmh SSE 11.0 mph17.7 kmh 29.87 in1011.5 mb 0.00 in0.0 mm 0.00 in0.0 mm 0.00 in0.0 mm
10:00 AM 54.0°F12.2°C 47.6°F8.7°C 79% 2.0 mph SSE3.2 kmh SSE 11.0 mph17.7 kmh 29.87 in1011.5 mb 0.00 in0.0 mm 0.00 in0.0 mm 0.00 in0.0 mm
10:05 AM 54.6°F12.6°C 48.6°F9.2°C 80% 4.0 mph SE6.4 kmh SE 11.0 mph17.7 kmh 29.87 in1011.5 mb 0.00 in0.0 mm 0.00 in0.0 mm 0.00 in0.0 mm
10:10 AM 55.1°F12.8°C 49.4°F9.7°C 81% 4.0 mph ESE6.4 kmh ESE 9.0 mph14.5 kmh 29.87 in1011.5 mb 0.00 in0.0 mm 0.00 in0.0 mm 0.00 in0.0 mm
10:15 AM 55.0°F12.8°C 49.6°F9.8°C 82% 5.0 mph SE8.0 kmh SE 9.0 mph14.5 kmh 29.87 in1011.5 mb 0.00 in0.0 mm 0.00 in0.0 mm 0.00 in0.0 mm
10:20 AM 54.8°F12.7°C 49.7°F9.8°C 83% 6.0 mph SE9.7 kmh SE 11.0 mph17.7 kmh 29.87 in1011.5 mb 0.00 in0.0 mm 0.00 in0.0 mm 0.00 in0.0 mm
10:25 AM 54.6°F12.6°C 49.2°F9.6°C 82% 5.0 mph SE8.0 kmh SE 11.0 mph17.7 kmh 29.87 in1011.5 mb 0.00 in0.0 mm 0.00 in0.0 mm 0.00 in0.0 mm
10:30 AM 54.6°F12.6°C 49.2°F9.6°C 82% 2.0 mph SE3.2 kmh SE 11.0 mph17.7 kmh 29.87 in1011.5 mb 0.00 in0.0 mm 0.00 in0.0 mm 0.00 in0.0 mm
10:35 AM 54.6°F12.6°C 49.2°F9.6°C 82% 5.0 mph SSE8.0 kmh SSE 6.0 mph9.7 kmh 29.87 in1011.5 mb 0.00 in0.0 mm 0.00 in0.0 mm 0.00 in0.0 mm
10:40 AM 54.4°F12.4°C 49.3°F9.6°C 83% 4.0 mph SE6.4 kmh SE 6.0 mph9.7 kmh 29.87 in1011.5 mb 0.00 in0.0 mm 0.00 in0.0 mm 0.00 in0.0 mm
10:45 AM 54.4°F12.4°C 49.3°F9.6°C 83% 5.0 mph S8.0 kmh S 7.0 mph11.3 kmh 29.87 in1011.5 mb 0.00 in0.0 mm 0.00 in0.0 mm 0.00 in0.0 mm
10:50 AM 54.3°F12.4°C 49.2°F9.6°C 83% 3.0 mph S4.8 kmh S 7.0 mph11.3 kmh 29.87 in1011.5 mb 0.00 in0.0 mm 0.00 in0.0 mm 0.00 in0.0 mm
10:55 AM 54.2°F12.3°C 49.1°F9.5°C 83% 6.0 mph SSE9.7 kmh SSE 9.0 mph14.5 kmh 29.87 in1011.5 mb 0.00 in0.0 mm 0.00 in0.0 mm 0.00 in0.0 mm
11:00 AM 54.1°F12.3°C 48.7°F9.3°C 82% 2.0 mph S3.2 kmh S 9.0 mph14.5 kmh 29.87 in1011.5 mb 0.00 in0.0 mm 0.00 in0.0 mm 0.00 in0.0 mm
11:05 AM 54.3°F12.4°C 48.9°F9.4°C 82% 4.0 mph SSE6.4 kmh SSE 8.0 mph12.9 kmh 29.87 in1011.5 mb 0.00 in0.0 mm 0.00 in0.0 mm 0.00 in0.0 mm
11:10 AM 54.6°F12.6°C 49.2°F9.6°C 82% Calm Calm 8.0 mph12.9 kmh 29.87 in1011.5 mb 0.00 in0.0 mm 0.00 in0.0 mm 0.00 in0.0 mm
11:15 AM 54.8°F12.7°C 49.4°F9.7°C 82% 3.0 mph S4.8 kmh S 7.0 mph11.3 kmh 29.87 in1011.5 mb 0.00 in0.0 mm 0.00 in0.0 mm 0.00 in0.0 mm
11:20 AM 55.1°F12.8°C 49.7°F9.8°C 82% 2.0 mph S3.2 kmh S 8.0 mph12.9 kmh 29.87 in1011.5 mb 0.00 in0.0 mm 0.00 in0.0 mm 0.00 in0.0 mm
11:25 AM 55.0°F12.8°C 49.9°F9.9°C 83% 3.0 mph S4.8 kmh S 8.0 mph12.9 kmh 29.87 in1011.5 mb 0.00 in0.0 mm 0.00 in0.0 mm 0.00 in0.0 mm
11:30 AM 54.9°F12.7°C 49.8°F9.9°C 83% 2.0 mph S3.2 kmh S 7.0 mph11.3 kmh 29.87 in1011.5 mb 0.00 in0.0 mm 0.00 in0.0 mm 0.00 in0.0 mm
11:35 AM 55.0°F12.8°C 49.9°F9.9°C 83% 2.0 mph SW3.2 kmh SW 7.0 mph11.3 kmh 29.87 in1011.5 mb 0.00 in0.0 mm 0.00 in0.0 mm 0.00 in0.0 mm
11:40 AM 55.1°F12.8°C 50.0°F10.0°C 83% 7.0 mph SSW11.3 kmh SSW 6.0 mph9.7 kmh 29.87 in1011.5 mb 0.00 in0.0 mm 0.00 in0.0 mm 0.00 in0.0 mm
11:45 AM 55.1°F12.8°C 50.0°F10.0°C 83% 4.0 mph S6.4 kmh S 8.0 mph12.9 kmh 29.87 in1011.5 mb 0.00 in0.0 mm 0.00 in0.0 mm 0.00 in0.0 mm
11:50 AM 55.1°F12.8°C 50.0°F10.0°C 83% 1.0 mph SW1.6 kmh SW 8.0 mph12.9 kmh 29.87 in1011.5 mb 0.00 in0.0 mm 0.00 in0.0 mm 0.00 in0.0 mm
11:55 AM 55.1°F12.8°C 50.0°F10.0°C 83% 6.0 mph S9.7 kmh S 6.0 mph9.7 kmh 29.87 in1011.5 mb 0.00 in0.0 mm 0.00 in0.0 mm 0.00 in0.0 mm
12:00 PM 55.1°F12.8°C 50.0°F10.0°C 83% 1.0 mph S1.6 kmh S 6.0 mph9.7 kmh 29.87 in1011.5 mb 0.00 in0.0 mm 0.00 in0.0 mm 0.00 in0.0 mm
12:05 PM 55.1°F12.8°C 50.0°F10.0°C 83% 1.0 mph S1.6 kmh S 8.0 mph12.9 kmh 29.86 in1011.2 mb 0.00 in0.0 mm 0.00 in0.0 mm 0.00 in0.0 mm
12:10 PM 55.0°F12.8°C 49.9°F9.9°C 83% 5.0 mph S8.0 kmh S 8.0 mph12.9 kmh 29.86 in1011.2 mb 0.00 in0.0 mm 0.00 in0.0 mm 0.00 in0.0 mm
12:15 PM 55.0°F12.8°C 49.9°F9.9°C 83% 1.0 mph S1.6 kmh S 9.0 mph14.5 kmh 29.86 in1011.2 mb 0.00 in0.0 mm 0.00 in0.0 mm 0.00 in0.0 mm
12:20 PM 55.1°F12.8°C 50.0°F10.0°C 83% 4.0 mph SE6.4 kmh SE 9.0 mph14.5 kmh 29.86 in1011.2 mb 0.00 in0.0 mm 0.00 in0.0 mm 0.00 in0.0 mm
12:25 PM 55.2°F12.9°C 50.1°F10.1°C 83% 6.0 mph SE9.7 kmh SE 7.0 mph11.3 kmh 29.86 in1011.2 mb 0.00 in0.0 mm 0.00 in0.0 mm 0.00 in0.0 mm
12:30 PM 55.3°F12.9°C 50.2°F10.1°C 83% 3.0 mph SSW4.8 kmh SSW 8.0 mph12.9 kmh 29.86 in1011.2 mb 0.00 in0.0 mm 0.00 in0.0 mm 0.00 in0.0 mm
12:35 PM 55.6°F13.1°C 50.5°F10.3°C 83% 7.0 mph SE11.3 kmh SE 8.0 mph12.9 kmh 29.85 in1010.8 mb 0.00 in0.0 mm 0.00 in0.0 mm 0.00 in0.0 mm
12:40 PM 55.8°F13.2°C 50.7°F10.4°C 83% 6.0 mph SSE9.7 kmh SSE 9.0 mph14.5 kmh 29.85 in1010.8 mb 0.00 in0.0 mm 0.00 in0.0 mm 0.00 in0.0 mm
12:45 PM 55.9°F13.3°C 50.8°F10.4°C 83% 1.0 mph S1.6 kmh S 9.0 mph14.5 kmh 29.84 in1010.5 mb 0.00 in0.0 mm 0.00 in0.0 mm 0.00 in0.0 mm
12:50 PM 56.0°F13.3°C 50.9°F10.5°C 83% 1.0 mph S1.6 kmh S 9.0 mph14.5 kmh 29.85 in1010.8 mb 0.00 in0.0 mm 0.00 in0.0 mm 0.00 in0.0 mm
12:55 PM 56.2°F13.4°C 50.8°F10.4°C 82% 5.0 mph SE8.0 kmh SE 9.0 mph14.5 kmh 29.84 in1010.5 mb 0.00 in0.0 mm 0.00 in0.0 mm 0.00 in0.0 mm
01:00 PM 56.2°F13.4°C 50.8°F10.4°C 82% 6.0 mph SSE9.7 kmh SSE 11.0 mph17.7 kmh 29.84 in1010.5 mb 0.00 in0.0 mm 0.00 in0.0 mm 0.00 in0.0 mm
01:05 PM 56.2°F13.4°C 50.8°F10.4°C 82% 2.0 mph S3.2 kmh S 11.0 mph17.7 kmh 29.84 in1010.5 mb 0.00 in0.0 mm 0.00 in0.0 mm 0.00 in0.0 mm
01:10 PM 56.7°F13.7°C 51.3°F10.7°C 82% 9.0 mph SE14.5 kmh SE 10.0 mph16.1 kmh 29.84 in1010.5 mb 0.00 in0.0 mm 0.00 in0.0 mm 0.00 in0.0 mm
01:15 PM 56.7°F13.7°C 51.3°F10.7°C 82% 8.0 mph SE12.9 kmh SE 11.0 mph17.7 kmh 29.83 in1010.2 mb 0.00 in0.0 mm 0.00 in0.0 mm 0.00 in0.0 mm
01:20 PM 56.6°F13.7°C 50.8°F10.4°C 81% 1.0 mph ESE1.6 kmh ESE 13.0 mph20.9 kmh 29.83 in1010.2 mb 0.00 in0.0 mm 0.00 in0.0 mm 0.00 in0.0 mm
01:25 PM 56.7°F13.7°C 50.9°F10.5°C 81% 9.0 mph SE14.5 kmh SE 15.0 mph24.1 kmh 29.83 in1010.2 mb 0.00 in0.0 mm 0.00 in0.0 mm 0.00 in0.0 mm
01:30 PM 56.9°F13.8°C 51.1°F10.6°C 81% 6.0 mph SSE9.7 kmh SSE 15.0 mph24.1 kmh 29.82 in1009.8 mb 0.00 in0.0 mm 0.00 in0.0 mm 0.00 in0.0 mm
01:35 PM 56.9°F13.8°C 51.1°F10.6°C 81% 7.0 mph SE11.3 kmh SE 12.0 mph19.3 kmh 29.82 in1009.8 mb 0.00 in0.0 mm 0.00 in0.0 mm 0.00 in0.0 mm
01:40 PM 57.0°F13.9°C 51.2°F10.7°C 81% 5.0 mph SE8.0 kmh SE 14.0 mph22.5 kmh 29.82 in1009.8 mb 0.00 in0.0 mm 0.00 in0.0 mm 0.00 in0.0 mm
01:45 PM 57.1°F13.9°C 51.3°F10.7°C 81% 2.0 mph SSE3.2 kmh SSE 14.0 mph22.5 kmh 29.82 in1009.8 mb 0.00 in0.0 mm 0.00 in0.0 mm 0.00 in0.0 mm
01:50 PM 57.3°F14.1°C 51.5°F10.8°C 81% 8.0 mph SSE12.9 kmh SSE 12.0 mph19.3 kmh 29.81 in1009.5 mb 0.00 in0.0 mm 0.00 in0.0 mm 0.00 in0.0 mm
01:55 PM 57.5°F14.2°C 51.7°F10.9°C 81% 7.0 mph S11.3 kmh S 12.0 mph19.3 kmh 29.81 in1009.5 mb 0.00 in0.0 mm 0.00 in0.0 mm 0.00 in0.0 mm
02:00 PM 57.7°F14.3°C 51.9°F11.1°C 81% 5.0 mph SE8.0 kmh SE 12.0 mph19.3 kmh 29.80 in1009.1 mb 0.00 in0.0 mm 0.00 in0.0 mm 0.00 in0.0 mm
02:05 PM 57.8°F14.3°C 52.0°F11.1°C 81% 7.0 mph SE11.3 kmh SE 12.0 mph19.3 kmh 29.80 in1009.1 mb 0.00 in0.0 mm 0.00 in0.0 mm 0.00 in0.0 mm
02:10 PM 57.8°F14.3°C 51.7°F10.9°C 80% 4.0 mph ESE6.4 kmh ESE 13.0 mph20.9 kmh 29.80 in1009.1 mb 0.00 in0.0 mm 0.00 in0.0 mm 0.00 in0.0 mm
02:15 PM 57.7°F14.3°C 51.6°F10.9°C 80% 7.0 mph SE11.3 kmh SE 13.0 mph20.9 kmh 29.80 in1009.1 mb 0.00 in0.0 mm 0.00 in0.0 mm 0.00 in0.0 mm
02:20 PM 57.8°F14.3°C 51.7°F10.9°C 80% 10.0 mph SE16.1 kmh SE 13.0 mph20.9 kmh 29.79 in1008.8 mb 0.00 in0.0 mm 0.00 in0.0 mm 0.00 in0.0 mm
02:25 PM 57.7°F14.3°C 51.6°F10.9°C 80% 8.0 mph SE12.9 kmh SE 15.0 mph24.1 kmh 29.79 in1008.8 mb 0.00 in0.0 mm 0.00 in0.0 mm 0.00 in0.0 mm
02:30 PM 57.7°F14.3°C 51.6°F10.9°C 80% 5.0 mph SSE8.0 kmh SSE 15.0 mph24.1 kmh 29.79 in1008.8 mb 0.00 in0.0 mm 0.00 in0.0 mm 0.00 in0.0 mm
02:35 PM 57.7°F14.3°C 51.2°F10.7°C 79% 6.0 mph SSE9.7 kmh SSE 14.0 mph22.5 kmh 29.79 in1008.8 mb 0.00 in0.0 mm 0.00 in0.0 mm 0.00 in0.0 mm
02:40 PM 58.1°F14.5°C 52.0°F11.1°C 80% 5.0 mph ESE8.0 kmh ESE 14.0 mph22.5 kmh 29.79 in1008.8 mb 0.00 in0.0 mm 0.00 in0.0 mm 0.00 in0.0 mm
02:45 PM 58.4°F14.7°C 51.9°F11.1°C 79% 7.0 mph ESE11.3 kmh ESE 14.0 mph22.5 kmh 29.79 in1008.8 mb 0.00 in0.0 mm 0.00 in0.0 mm 0.00 in0.0 mm
02:50 PM 58.4°F14.7°C 51.9°F11.1°C 79% 8.0 mph SE12.9 kmh SE 14.0 mph22.5 kmh 29.79 in1008.8 mb 0.00 in0.0 mm 0.00 in0.0 mm 0.00 in0.0 mm
02:55 PM 58.1°F14.5°C 51.6°F10.9°C 79% 4.0 mph SE6.4 kmh SE 13.0 mph20.9 kmh 29.78 in1008.5 mb 0.00 in0.0 mm 0.00 in0.0 mm 0.00 in0.0 mm
03:00 PM 58.0°F14.4°C 51.9°F11.1°C 80% 2.0 mph ESE3.2 kmh ESE 13.0 mph20.9 kmh 29.78 in1008.5 mb 0.00 in0.0 mm 0.00 in0.0 mm 0.00 in0.0 mm
03:05 PM 58.2°F14.6°C 51.7°F10.9°C 79% 8.0 mph SE12.9 kmh SE 14.0 mph22.5 kmh 29.78 in1008.5 mb 0.00 in0.0 mm 0.00 in0.0 mm 0.00 in0.0 mm
03:10 PM 58.2°F14.6°C 51.7°F10.9°C 79% 4.0 mph SSE6.4 kmh SSE 14.0 mph22.5 kmh 29.78 in1008.5 mb 0.00 in0.0 mm 0.00 in0.0 mm 0.00 in0.0 mm
03:15 PM 58.2°F14.6°C 51.7°F10.9°C 79% 7.0 mph SE11.3 kmh SE 11.0 mph17.7 kmh 29.77 in1008.1 mb 0.00 in0.0 mm 0.00 in0.0 mm 0.00 in0.0 mm
03:20 PM 58.0°F14.4°C 51.2°F10.7°C 78% 5.0 mph SE8.0 kmh SE 11.0 mph17.7 kmh 29.77 in1008.1 mb 0.00 in0.0 mm 0.00 in0.0 mm 0.00 in0.0 mm
03:25 PM 57.9°F14.4°C 51.4°F10.8°C 79% 6.0 mph SE9.7 kmh SE 10.0 mph16.1 kmh 29.77 in1008.1 mb 0.00 in0.0 mm 0.00 in0.0 mm 0.00 in0.0 mm
03:30 PM 57.9°F14.4°C 51.8°F11.0°C 80% 7.0 mph SE11.3 kmh SE 11.0 mph17.7 kmh 29.77 in1008.1 mb 0.00 in0.0 mm 0.00 in0.0 mm 0.00 in0.0 mm
03:35 PM 57.9°F14.4°C 51.8°F11.0°C 80% 1.0 mph S1.6 kmh S 11.0 mph17.7 kmh 29.77 in1008.1 mb 0.00 in0.0 mm 0.00 in0.0 mm 0.00 in0.0 mm
03:40 PM 57.8°F14.3°C 51.7°F10.9°C 80% 5.0 mph E8.0 kmh E 9.0 mph14.5 kmh 29.77 in1008.1 mb 0.00 in0.0 mm 0.00 in0.0 mm 0.00 in0.0 mm
03:45 PM 57.8°F14.3°C 51.7°F10.9°C 80% 5.0 mph ESE8.0 kmh ESE 9.0 mph14.5 kmh 29.76 in1007.8 mb 0.00 in0.0 mm 0.00 in0.0 mm 0.00 in0.0 mm
03:50 PM 57.9°F14.4°C 51.4°F10.8°C 79% 6.0 mph SSE9.7 kmh SSE 9.0 mph14.5 kmh 29.76 in1007.8 mb 0.00 in0.0 mm 0.00 in0.0 mm 0.00 in0.0 mm
03:55 PM 57.9°F14.4°C 51.4°F10.8°C 79% 1.0 mph ESE1.6 kmh ESE 9.0 mph14.5 kmh 29.76 in1007.8 mb 0.00 in0.0 mm 0.00 in0.0 mm 0.00 in0.0 mm
04:00 PM 57.9°F14.4°C 51.4°F10.8°C 79% 2.0 mph SSE3.2 kmh SSE 9.0 mph14.5 kmh 29.76 in1007.8 mb 0.00 in0.0 mm 0.00 in0.0 mm 0.00 in0.0 mm
04:05 PM 57.8°F14.3°C 51.3°F10.7°C 79% 6.0 mph S9.7 kmh S 9.0 mph14.5 kmh 29.76 in1007.8 mb 0.00 in0.0 mm 0.00 in0.0 mm 0.00 in0.0 mm
04:10 PM 57.7°F14.3°C 51.2°F10.7°C 79% 6.0 mph S9.7 kmh S 9.0 mph14.5 kmh 29.75 in1007.5 mb 0.00 in0.0 mm 0.00 in0.0 mm 0.00 in0.0 mm
04:15 PM 57.7°F14.3°C 51.2°F10.7°C 79% 4.0 mph SE6.4 kmh SE 9.0 mph14.5 kmh 29.75 in1007.5 mb 0.00 in0.0 mm 0.00 in0.0 mm 0.00 in0.0 mm
04:20 PM 57.8°F14.3°C 51.3°F10.7°C 79% 6.0 mph SSE9.7 kmh SSE 8.0 mph12.9 kmh 29.75 in1007.5 mb 0.00 in0.0 mm 0.00 in0.0 mm 0.00 in0.0 mm
04:25 PM 57.8°F14.3°C 51.3°F10.7°C 79% 6.0 mph SSE9.7 kmh SSE 8.0 mph12.9 kmh 29.75 in1007.5 mb 0.00 in0.0 mm 0.00 in0.0 mm 0.00 in0.0 mm
04:30 PM 57.8°F14.3°C 51.3°F10.7°C 79% 4.0 mph SE6.4 kmh SE 10.0 mph16.1 kmh 29.74 in1007.1 mb 0.00 in0.0 mm 0.00 in0.0 mm 0.00 in0.0 mm
04:35 PM 57.8°F14.3°C 51.3°F10.7°C 79% 4.0 mph SE6.4 kmh SE 10.0 mph16.1 kmh 29.75 in1007.5 mb 0.00 in0.0 mm 0.00 in0.0 mm 0.00 in0.0 mm
04:40 PM 57.8°F14.3°C 51.3°F10.7°C 79% 4.0 mph SSE6.4 kmh SSE 8.0 mph12.9 kmh 29.75 in1007.5 mb 0.00 in0.0 mm 0.00 in0.0 mm 0.00 in0.0 mm
04:45 PM 57.7°F14.3°C 51.6°F10.9°C 80% 7.0 mph S11.3 kmh S 9.0 mph14.5 kmh 29.74 in1007.1 mb 0.00 in0.0 mm 0.00 in0.0 mm 0.00 in0.0 mm
04:50 PM 57.6°F14.2°C 51.5°F10.8°C 80% 2.0 mph SSE3.2 kmh SSE 9.0 mph14.5 kmh 29.74 in1007.1 mb 0.00 in0.0 mm 0.00 in0.0 mm 0.00 in0.0 mm
04:55 PM 57.4°F14.1°C 51.6°F10.9°C 81% 4.0 mph SSE6.4 kmh SSE 9.0 mph14.5 kmh 29.74 in1007.1 mb 0.00 in0.0 mm 0.00 in0.0 mm 0.00 in0.0 mm
05:00 PM 57.2°F14.0°C 51.8°F11.0°C 82% 2.0 mph SE3.2 kmh SE 7.0 mph11.3 kmh 29.74 in1007.1 mb 0.00 in0.0 mm 0.00 in0.0 mm 0.00 in0.0 mm
05:05 PM 57.0°F13.9°C 51.6°F10.9°C 82% Calm Calm 6.0 mph9.7 kmh 29.74 in1007.1 mb 0.00 in0.0 mm 0.00 in0.0 mm 0.00 in0.0 mm
05:10 PM 56.7°F13.7°C 51.3°F10.7°C 82% 4.0 mph SE6.4 kmh SE 6.0 mph9.7 kmh 29.74 in1007.1 mb 0.01 in0.3 mm 0.12 in3.0 mm 0.01 in0.3 mm
05:15 PM 56.5°F13.6°C 51.1°F10.6°C 82% 2.0 mph SSW3.2 kmh SSW 6.0 mph9.7 kmh 29.73 in1006.8 mb 0.01 in0.3 mm 0.00 in0.0 mm 0.01 in0.3 mm
05:20 PM 56.3°F13.5°C 51.2°F10.7°C 83% 1.0 mph SE1.6 kmh SE 6.0 mph9.7 kmh 29.73 in1006.8 mb 0.01 in0.3 mm 0.00 in0.0 mm 0.01 in0.3 mm
05:25 PM 56.3°F13.5°C 50.9°F10.5°C 82% 1.0 mph SSW1.6 kmh SSW 6.0 mph9.7 kmh 29.73 in1006.8 mb 0.02 in0.5 mm 0.12 in3.0 mm 0.02 in0.5 mm
05:30 PM 56.1°F13.4°C 50.7°F10.4°C 82% 4.0 mph S6.4 kmh S 6.0 mph9.7 kmh 29.73 in1006.8 mb 0.02 in0.5 mm 0.00 in0.0 mm 0.02 in0.5 mm
05:35 PM 56.0°F13.3°C 50.6°F10.3°C 82% 1.0 mph SSW1.6 kmh SSW 6.0 mph9.7 kmh 29.73 in1006.8 mb 0.02 in0.5 mm 0.00 in0.0 mm 0.02 in0.5 mm
05:40 PM 55.8°F13.2°C 50.7°F10.4°C 83% 2.0 mph SSW3.2 kmh SSW 7.0 mph11.3 kmh 29.72 in1006.4 mb 0.02 in0.5 mm 0.00 in0.0 mm 0.02 in0.5 mm
05:45 PM 55.7°F13.2°C 50.3°F10.2°C 82% 4.0 mph SE6.4 kmh SE 7.0 mph11.3 kmh 29.72 in1006.4 mb 0.02 in0.5 mm 0.00 in0.0 mm 0.02 in0.5 mm
05:50 PM 55.6°F13.1°C 50.2°F10.1°C 82% 1.0 mph SW1.6 kmh SW 7.0 mph11.3 kmh 29.72 in1006.4 mb 0.03 in0.8 mm 0.12 in3.0 mm 0.03 in0.8 mm
05:55 PM 55.4°F13.0°C 50.0°F10.0°C 82% 2.0 mph SSW3.2 kmh SSW 7.0 mph11.3 kmh 29.73 in1006.8 mb 0.03 in0.8 mm 0.00 in0.0 mm 0.03 in0.8 mm
06:00 PM 55.3°F12.9°C 49.9°F9.9°C 82% 3.0 mph SSW4.8 kmh SSW 6.0 mph9.7 kmh 29.73 in1006.8 mb 0.04 in1.0 mm 0.01 in0.3 mm 0.04 in1.0 mm
06:05 PM 55.1°F12.8°C 49.7°F9.8°C 82% 3.0 mph SSW4.8 kmh SSW 8.0 mph12.9 kmh 29.72 in1006.4 mb 0.04 in1.0 mm 0.00 in0.0 mm 0.04 in1.0 mm
06:10 PM 55.0°F12.8°C 49.6°F9.8°C 82% 5.0 mph S8.0 kmh S 8.0 mph12.9 kmh 29.72 in1006.4 mb 0.03 in0.8 mm 0.00 in0.0 mm 0.04 in1.0 mm
06:15 PM 54.8°F12.7°C 49.4°F9.7°C 82% 2.0 mph SSE3.2 kmh SSE 9.0 mph14.5 kmh 29.72 in1006.4 mb 0.04 in1.0 mm 0.12 in3.0 mm 0.05 in1.3 mm
06:20 PM 54.8°F12.7°C 49.4°F9.7°C 82% 4.0 mph S6.4 kmh S 10.0 mph16.1 kmh 29.72 in1006.4 mb 0.04 in1.0 mm 0.00 in0.0 mm 0.05 in1.3 mm
06:25 PM 54.6°F12.6°C 49.2°F9.6°C 82% 4.0 mph SSW6.4 kmh SSW 10.0 mph16.1 kmh 29.72 in1006.4 mb 0.04 in1.0 mm 0.00 in0.0 mm 0.06 in1.5 mm
06:30 PM 54.6°F12.6°C 49.2°F9.6°C 82% 4.0 mph SSW6.4 kmh SSW 9.0 mph14.5 kmh 29.72 in1006.4 mb 0.04 in1.0 mm 0.00 in0.0 mm 0.06 in1.5 mm
06:35 PM 54.6°F12.6°C 49.2°F9.6°C 82% 1.0 mph SE1.6 kmh SE 9.0 mph14.5 kmh 29.72 in1006.4 mb 0.05 in1.3 mm 0.12 in3.0 mm 0.07 in1.8 mm
06:40 PM 54.5°F12.5°C 49.1°F9.5°C 82% 5.0 mph ESE8.0 kmh ESE 9.0 mph14.5 kmh 29.71 in1006.1 mb 0.05 in1.3 mm 0.00 in0.0 mm 0.07 in1.8 mm
06:45 PM 54.5°F12.5°C 48.8°F9.3°C 81% 2.0 mph SSE3.2 kmh SSE 10.0 mph16.1 kmh 29.71 in1006.1 mb 0.05 in1.3 mm 0.00 in0.0 mm 0.07 in1.8 mm
06:50 PM 54.5°F12.5°C 48.8°F9.3°C 81% 5.0 mph SE8.0 kmh SE 10.0 mph16.1 kmh 29.71 in1006.1 mb 0.04 in1.0 mm 0.00 in0.0 mm 0.07 in1.8 mm
06:55 PM 54.5°F12.5°C 48.8°F9.3°C 81% 7.0 mph ESE11.3 kmh ESE 10.0 mph16.1 kmh 29.71 in1006.1 mb 0.05 in1.3 mm 0.12 in3.0 mm 0.08 in2.0 mm
07:00 PM 54.4°F12.4°C 48.7°F9.3°C 81% 9.0 mph SSE14.5 kmh SSE 11.0 mph17.7 kmh 29.71 in1006.1 mb 0.04 in1.0 mm 0.00 in0.0 mm 0.08 in2.0 mm
07:05 PM 54.4°F12.4°C 48.7°F9.3°C 81% 9.0 mph SSE14.5 kmh SSE 11.0 mph17.7 kmh 29.71 in1006.1 mb 0.05 in1.3 mm 0.12 in3.0 mm 0.09 in2.3 mm
07:10 PM 54.4°F12.4°C 48.7°F9.3°C 81% 9.0 mph SSE14.5 kmh SSE 13.0 mph20.9 kmh 29.70 in1005.8 mb 0.05 in1.3 mm 0.00 in0.0 mm 0.09 in2.3 mm
07:15 PM 54.3°F12.4°C 48.6°F9.2°C 81% 7.0 mph SSE11.3 kmh SSE 13.0 mph20.9 kmh 29.70 in1005.8 mb 0.05 in1.3 mm 0.00 in0.0 mm 0.10 in2.5 mm
07:20 PM 54.3°F12.4°C 48.6°F9.2°C 81% 7.0 mph SSE11.3 kmh SSE 14.0 mph22.5 kmh 29.70 in1005.8 mb 0.05 in1.3 mm 0.00 in0.0 mm 0.10 in2.5 mm
07:25 PM 54.3°F12.4°C 48.6°F9.2°C 81% 8.0 mph SE12.9 kmh SE 14.0 mph22.5 kmh 29.70 in1005.8 mb 0.05 in1.3 mm 0.00 in0.0 mm 0.11 in2.8 mm
07:30 PM 54.3°F12.4°C 48.6°F9.2°C 81% 4.0 mph ESE6.4 kmh ESE 13.0 mph20.9 kmh 29.70 in1005.8 mb 0.05 in1.3 mm 0.00 in0.0 mm 0.11 in2.8 mm
07:35 PM 54.3°F12.4°C 48.6°F9.2°C 81% 11.0 mph SE17.7 kmh SE 13.0 mph20.9 kmh 29.70 in1005.8 mb 0.05 in1.3 mm 0.00 in0.0 mm 0.12 in3.0 mm
07:40 PM 54.3°F12.4°C 48.6°F9.2°C 81% 6.0 mph SE9.7 kmh SE 12.0 mph19.3 kmh 29.70 in1005.8 mb 0.05 in1.3 mm 0.00 in0.0 mm 0.12 in3.0 mm
07:45 PM 54.3°F12.4°C 48.6°F9.2°C 81% 6.0 mph SSE9.7 kmh SSE 11.0 mph17.7 kmh 29.70 in1005.8 mb 0.05 in1.3 mm 0.00 in0.0 mm 0.12 in3.0 mm
07:50 PM 54.3°F12.4°C 48.6°F9.2°C 81% 9.0 mph SE14.5 kmh SE 11.0 mph17.7 kmh 29.70 in1005.8 mb 0.06 in1.5 mm 0.12 in3.0 mm 0.13 in3.3 mm
07:55 PM 54.3°F12.4°C 48.6°F9.2°C 81% 10.0 mph SE16.1 kmh SE 13.0 mph20.9 kmh 29.70 in1005.8 mb 0.06 in1.5 mm 0.00 in0.0 mm 0.14 in3.6 mm
08:00 PM 54.2°F12.3°C 48.2°F9.0°C 80% 10.0 mph SE16.1 kmh SE 13.0 mph20.9 kmh 29.70 in1005.8 mb 0.06 in1.5 mm 0.00 in0.0 mm 0.14 in3.6 mm
08:05 PM 54.2°F12.3°C 48.2°F9.0°C 80% 7.0 mph SE11.3 kmh SE 13.0 mph20.9 kmh 29.70 in1005.8 mb 0.06 in1.5 mm 0.00 in0.0 mm 0.15 in3.8 mm
08:10 PM 54.2°F12.3°C 48.2°F9.0°C 80% 6.0 mph ESE9.7 kmh ESE 14.0 mph22.5 kmh 29.70 in1005.8 mb 0.07 in1.8 mm 0.12 in3.0 mm 0.16 in4.1 mm
08:15 PM 54.1°F12.3°C 48.1°F8.9°C 80% 6.0 mph SE9.7 kmh SE 14.0 mph22.5 kmh 29.69 in1005.4 mb 0.07 in1.8 mm 0.00 in0.0 mm 0.17 in4.3 mm
08:20 PM 54.1°F12.3°C 48.1°F8.9°C 80% 7.0 mph SSE11.3 kmh SSE 14.0 mph22.5 kmh 29.69 in1005.4 mb 0.07 in1.8 mm 0.00 in0.0 mm 0.17 in4.3 mm
08:25 PM 54.1°F12.3°C 48.1°F8.9°C 80% 8.0 mph SE12.9 kmh SE 14.0 mph22.5 kmh 29.69 in1005.4 mb 0.07 in1.8 mm 0.00 in0.0 mm 0.18 in4.6 mm
08:30 PM 54.1°F12.3°C 48.1°F8.9°C 80% 8.0 mph SE12.9 kmh SE 14.0 mph22.5 kmh 29.68 in1005.1 mb 0.08 in2.0 mm 0.12 in3.0 mm 0.19 in4.8 mm
08:35 PM 54.1°F12.3°C 48.1°F8.9°C 80% 9.0 mph SE14.5 kmh SE 12.0 mph19.3 kmh 29.68 in1005.1 mb 0.08 in2.0 mm 0.00 in0.0 mm 0.20 in5.1 mm
08:40 PM 54.1°F12.3°C 48.1°F8.9°C 80% 5.0 mph SE8.0 kmh SE 13.0 mph20.9 kmh 29.68 in1005.1 mb 0.08 in2.0 mm 0.00 in0.0 mm 0.20 in5.1 mm
08:45 PM 54.0°F12.2°C 48.0°F8.9°C 80% 11.0 mph SE17.7 kmh SE 15.0 mph24.1 kmh 29.67 in1004.7 mb 0.09 in2.3 mm 0.12 in3.0 mm 0.21 in5.3 mm
08:50 PM 54.0°F12.2°C 48.0°F8.9°C 80% 11.0 mph SE17.7 kmh SE 15.0 mph24.1 kmh 29.67 in1004.7 mb 0.08 in2.0 mm 0.00 in0.0 mm 0.21 in5.3 mm
08:55 PM 54.0°F12.2°C 48.0°F8.9°C 80% 4.0 mph SE6.4 kmh SE 19.0 mph30.6 kmh 29.67 in1004.7 mb 0.08 in2.0 mm 0.00 in0.0 mm 0.22 in5.6 mm
09:00 PM 54.0°F12.2°C 48.0°F8.9°C 80% 8.0 mph S12.9 kmh S 19.0 mph30.6 kmh 29.68 in1005.1 mb 0.08 in2.0 mm 0.00 in0.0 mm 0.22 in5.6 mm
09:05 PM 54.0°F12.2°C 48.0°F8.9°C 80% 9.0 mph S14.5 kmh S 15.0 mph24.1 kmh 29.69 in1005.4 mb 0.08 in2.0 mm 0.00 in0.0 mm 0.23 in5.8 mm
09:10 PM 53.9°F12.2°C 47.9°F8.8°C 80% 6.0 mph SE9.7 kmh SE 12.0 mph19.3 kmh 29.69 in1005.4 mb 0.07 in1.8 mm 0.00 in0.0 mm 0.23 in5.8 mm
09:15 PM 53.9°F12.2°C 47.9°F8.8°C 80% 4.0 mph SSE6.4 kmh SSE 11.0 mph17.7 kmh 29.69 in1005.4 mb 0.06 in1.5 mm 0.00 in0.0 mm 0.23 in5.8 mm
09:20 PM 53.8°F12.1°C 47.8°F8.8°C 80% 7.0 mph SE11.3 kmh SE 10.0 mph16.1 kmh 29.69 in1005.4 mb 0.06 in1.5 mm 0.00 in0.0 mm 0.23 in5.8 mm
09:25 PM 53.7°F12.1°C 47.7°F8.7°C 80% 2.0 mph SE3.2 kmh SE 9.0 mph14.5 kmh 29.69 in1005.4 mb 0.06 in1.5 mm 0.00 in0.0 mm 0.24 in6.1 mm
09:30 PM 53.7°F12.1°C 47.7°F8.7°C 80% 4.0 mph SE6.4 kmh SE 9.0 mph14.5 kmh 29.69 in1005.4 mb 0.05 in1.3 mm 0.00 in0.0 mm 0.24 in6.1 mm
09:35 PM 53.6°F12.0°C 47.6°F8.7°C 80% 6.0 mph SE9.7 kmh SE 9.0 mph14.5 kmh 29.68 in1005.1 mb 0.06 in1.5 mm 0.12 in3.0 mm 0.25 in6.4 mm
09:40 PM 53.7°F12.1°C 47.7°F8.7°C 80% 7.0 mph SE11.3 kmh SE 13.0 mph20.9 kmh 29.68 in1005.1 mb 0.06 in1.5 mm 0.00 in0.0 mm 0.26 in6.6 mm
09:45 PM 53.6°F12.0°C 47.2°F8.4°C 79% 6.0 mph SE9.7 kmh SE 13.0 mph20.9 kmh 29.67 in1004.7 mb 0.06 in1.5 mm 0.00 in0.0 mm 0.27 in6.9 mm
09:50 PM 53.6°F12.0°C 47.2°F8.4°C 79% 6.0 mph SE9.7 kmh SE 12.0 mph19.3 kmh 29.67 in1004.7 mb 0.07 in1.8 mm 0.12 in3.0 mm 0.28 in7.1 mm
09:55 PM 53.6°F12.0°C 47.2°F8.4°C 79% 6.0 mph ESE9.7 kmh ESE 14.0 mph22.5 kmh 29.67 in1004.7 mb 0.07 in1.8 mm 0.00 in0.0 mm 0.29 in7.4 mm
10:00 PM 53.7°F12.1°C 47.3°F8.5°C 79% 6.0 mph SE9.7 kmh SE 14.0 mph22.5 kmh 29.67 in1004.7 mb 0.08 in2.0 mm 0.01 in0.3 mm 0.30 in7.6 mm
10:05 PM 53.7°F12.1°C 47.3°F8.5°C 79% 13.0 mph ESE20.9 kmh ESE 13.0 mph20.9 kmh 29.67 in1004.7 mb 0.08 in2.0 mm 0.00 in0.0 mm 0.31 in7.9 mm
10:10 PM 53.7°F12.1°C 47.3°F8.5°C 79% 8.0 mph ESE12.9 kmh ESE 13.0 mph20.9 kmh 29.67 in1004.7 mb 0.08 in2.0 mm 0.00 in0.0 mm 0.31 in7.9 mm
10:15 PM 53.7°F12.1°C 47.0°F8.3°C 78% 4.0 mph ESE6.4 kmh ESE 15.0 mph24.1 kmh 29.66 in1004.4 mb 0.09 in2.3 mm 0.12 in3.0 mm 0.32 in8.1 mm
10:20 PM 53.6°F12.0°C 46.9°F8.3°C 78% 11.0 mph SE17.7 kmh SE 15.0 mph24.1 kmh 29.66 in1004.4 mb 0.09 in2.3 mm 0.00 in0.0 mm 0.32 in8.1 mm
10:25 PM 53.6°F12.0°C 46.9°F8.3°C 78% 9.0 mph SE14.5 kmh SE 15.0 mph24.1 kmh 29.66 in1004.4 mb 0.08 in2.0 mm 0.00 in0.0 mm 0.32 in8.1 mm
10:30 PM 53.6°F12.0°C 46.9°F8.3°C 78% 11.0 mph ESE17.7 kmh ESE 15.0 mph24.1 kmh 29.66 in1004.4 mb 0.09 in2.3 mm 0.12 in3.0 mm 0.33 in8.4 mm
10:35 PM 53.5°F11.9°C 46.8°F8.2°C 78% 8.0 mph SE12.9 kmh SE 16.0 mph25.7 kmh 29.66 in1004.4 mb 0.09 in2.3 mm 0.00 in0.0 mm 0.34 in8.6 mm
10:40 PM 53.4°F11.9°C 46.7°F8.2°C 78% 8.0 mph SE12.9 kmh SE 17.0 mph27.4 kmh 29.66 in1004.4 mb 0.08 in2.0 mm 0.00 in0.0 mm 0.34 in8.6 mm
10:45 PM 53.3°F11.8°C 46.6°F8.1°C 78% 7.0 mph ESE11.3 kmh ESE 17.0 mph27.4 kmh 29.65 in1004.1 mb 0.08 in2.0 mm 0.00 in0.0 mm 0.35 in8.9 mm
10:50 PM 53.2°F11.8°C 46.5°F8.1°C 78% 11.0 mph SE17.7 kmh SE 18.0 mph29.0 kmh 29.65 in1004.1 mb 0.08 in2.0 mm 0.00 in0.0 mm 0.36 in9.1 mm
10:55 PM 53.2°F11.8°C 46.5°F8.1°C 78% 16.0 mph SSE25.7 kmh SSE 20.0 mph32.2 kmh 29.65 in1004.1 mb 0.08 in2.0 mm 0.00 in0.0 mm 0.37 in9.4 mm
11:00 PM 53.2°F11.8°C 46.5°F8.1°C 78% 11.0 mph SE17.7 kmh SE 20.0 mph32.2 kmh 29.65 in1004.1 mb 0.08 in2.0 mm 0.00 in0.0 mm 0.38 in9.7 mm
11:05 PM 53.2°F11.8°C 46.9°F8.3°C 79% 14.0 mph SSE22.5 kmh SSE 23.0 mph37.0 kmh 29.65 in1004.1 mb 0.08 in2.0 mm 0.00 in0.0 mm 0.39 in9.9 mm
11:10 PM 53.1°F11.7°C 46.8°F8.2°C 79% 9.0 mph S14.5 kmh S 24.0 mph38.6 kmh 29.65 in1004.1 mb 0.09 in2.3 mm 0.12 in3.0 mm 0.40 in10.2 mm
11:15 PM 53.1°F11.7°C 46.8°F8.2°C 79% 12.0 mph SE19.3 kmh SE 24.0 mph38.6 kmh 29.65 in1004.1 mb 0.09 in2.3 mm 0.00 in0.0 mm 0.41 in10.4 mm
11:20 PM 53.1°F11.7°C 46.8°F8.2°C 79% 12.0 mph SE19.3 kmh SE 20.0 mph32.2 kmh 29.64 in1003.7 mb 0.10 in2.5 mm 0.12 in3.0 mm 0.42 in10.7 mm
11:25 PM 53.1°F11.7°C 46.8°F8.2°C 79% 13.0 mph SSE20.9 kmh SSE 20.0 mph32.2 kmh 29.64 in1003.7 mb 0.11 in2.8 mm 0.12 in3.0 mm 0.43 in10.9 mm
11:30 PM 53.1°F11.7°C 46.8°F8.2°C 79% 15.0 mph SE24.1 kmh SE 18.0 mph29.0 kmh 29.64 in1003.7 mb 0.11 in2.8 mm 0.00 in0.0 mm 0.44 in11.2 mm
11:35 PM 53.1°F11.7°C 46.8°F8.2°C 79% 11.0 mph ESE17.7 kmh ESE 18.0 mph29.0 kmh 29.63 in1003.4 mb 0.11 in2.8 mm 0.00 in0.0 mm 0.45 in11.4 mm
11:40 PM 53.1°F11.7°C 46.8°F8.2°C 79% 11.0 mph SE17.7 kmh SE 19.0 mph30.6 kmh 29.62 in1003.0 mb 0.12 in3.0 mm 0.12 in3.0 mm 0.46 in11.7 mm
11:45 PM 53.2°F11.8°C 46.5°F8.1°C 78% 8.0 mph ESE12.9 kmh ESE 20.0 mph32.2 kmh 29.62 in1003.0 mb 0.12 in3.0 mm 0.00 in0.0 mm 0.47 in11.9 mm
11:51 PM 53.2°F11.8°C 46.5°F8.1°C 78% 4.0 mph SE6.4 kmh SE 24.0 mph38.6 kmh 29.62 in1003.0 mb 0.12 in3.0 mm 0.00 in0.0 mm 0.48 in12.2 mm
11:55 PM 53.2°F11.8°C 46.5°F8.1°C 78% 13.0 mph ESE20.9 kmh ESE 24.0 mph38.6 kmh 29.62 in1003.0 mb 0.11 in2.8 mm 0.00 in0.0 mm 0.48 in12.2 mm